Terminal Aerodrome Forecast
Issued by NWS Bismarck, ND

Home | Current Version | Previous Version | Graphics & Text | Print | Product List | Glossary On
Versions: 1 2 3 4 5 6 7 8 9 10 11 12 13 14 15 16 17 18 19 20 21 22
000
FTUS43 KBIS 242300
TAFBIS
TAF
KBIS 242320Z 2500/2524 13011KT P6SM SCT050
     FM250300 08005KT P6SM VCTS SCT100CB
     FM250600 36011KT P6SM FEW120
     FM251000 32012KT P6SM SKC
     FM251800 28013G21KT P6SM SKC=

USA.gov is the U.S. government's official web portal to all federal, state and local government web resources and services.